KPGA/PGA METAR and TAF weather

Enter ICAO airport designator
Station Type Date Time Source
KPGA METAR 2021/03/01 09:53 UTC NOAA

KPGA 010953Z AUTO 00000KT 10SM CLR M01/M17 A3032 RMK AO2 SLP269 T10061172 TSNO


Station Type Date Time Source
KPGA Decoded METAR 2021/03/01 09:53 UTC NOAA

PAGE MUNICIPAL AIRPORT, AZ, United States (KPGA) 36-56N 111-27W 1307M
Mar 01, 2021 - 04:53 AM EST / 2021.03.01 0953 UTC
Wind: Calm:0
Visibility: 10 mile(s):0
Sky conditions: clear
Temperature: 30.9 F (-0.6 C)
Dew Point: 1.0 F (-17.2 C)
Relative Humidity: 27%
Pressure (altimeter): 30.32 in. Hg (1026 hPa)
ob: KPGA 010953Z AUTO 00000KT 10SM CLR M01/M17 A3032 RMK AO2 SLP269 T10061172 TSNO
cycle: 10

Station Type Date Time Source
KPGA TAF 2021/03/01 06:42 UTC NOAA

TAF KPGA 010539Z 0106/0206 VRB04KT P6SM SKC

Example: see airport list